Zum Inhalt springen

Flugplatzwetter

EDAZ 170323Z AUTO 10001KT 9999 NCD M05/M07 Q1018 RMK TL60=

4-Tage Wetter

Sonnenauf- und untergangszeiten

Im Folgenden finden Sie eine Übersicht der Sonnenauf- und untergangszeiten der nächsten 14 Tage.

Alle Zeiten local.

Datum Sonnenaufgang
18.01.2021 08:03 16:31
19.01.2021 08:02 16:33
20.01.2021 08:01 16:34
21.01.2021 08:00 16:36
22.01.2021 07:59 16:38
23.01.2021 07:58 16:40
24.01.2021 07:56 16:41
25.01.2021 07:55 16:43
26.01.2021 07:54 16:45
27.01.2021 07:52 16:47
28.01.2021 07:51 16:48
29.01.2021 07:49 16:50
30.01.2021 07:48 16:52
31.01.2021 07:46 16:54
01.02.2021 07:45 16:56
02.02.2021 07:43 16:58